sensor_id;sensor_type;location;lat;lon;timestamp;temperature;humidity
9151;DHT22;4610;50.006;7.490;2023-04-03T00:00:28;3.60;99.90
9151;DHT22;4610;50.006;7.490;2023-04-03T00:02:55;3.50;99.90
9151;DHT22;4610;50.006;7.490;2023-04-03T00:05:22;3.50;99.90
9151;DHT22;4610;50.006;7.490;2023-04-03T00:07:50;3.50;99.90
9151;DHT22;4610;50.006;7.490;2023-04-03T00:10:17;3.60;99.90
9151;DHT22;4610;50.006;7.490;2023-04-03T00:12:43;3.60;99.90
9151;DHT22;4610;50.006;7.490;2023-04-03T00:15:10;3.70;99.90
9151;DHT22;4610;50.006;7.490;2023-04-03T00:17:38;3.70;99.90
9151;DHT22;4610;50.006;7.490;2023-04-03T00:20:06;3.70;99.90
9151;DHT22;4610;50.006;7.490;2023-04-03T00:22:33;3.60;99.90
9151;DHT22;4610;50.006;7.490;2023-04-03T00:25:01;3.60;99.90
9151;DHT22;4610;50.006;7.490;2023-04-03T00:27:27;3.60;99.90
9151;DHT22;4610;50.006;7.490;2023-04-03T00:29:54;3.60;99.90
9151;DHT22;4610;50.006;7.490;2023-04-03T00:32:21;3.50;99.90
9151;DHT22;4610;50.006;7.490;2023-04-03T00:34:48;3.50;99.90
9151;DHT22;4610;50.006;7.490;2023-04-03T00:37:14;3.40;99.90
9151;DHT22;4610;50.006;7.490;2023-04-03T00:39:41;3.40;99.90
9151;DHT22;4610;50.006;7.490;2023-04-03T00:42:09;3.50;99.90
9151;DHT22;4610;50.006;7.490;2023-04-03T00:47:41;3.50;99.90
9151;DHT22;4610;50.006;7.490;2023-04-03T00:50:09;3.50;99.90
9151;DHT22;4610;50.006;7.490;2023-04-03T00:52:37;3.50;99.90
9151;DHT22;4610;50.006;7.490;2023-04-03T00:55:07;3.50;99.90
9151;DHT22;4610;50.006;7.490;2023-04-03T00:57:36;3.60;99.90
9151;DHT22;4610;50.006;7.490;2023-04-03T01:00:06;3.60;99.90
9151;DHT22;4610;50.006;7.490;2023-04-03T01:02:35;3.60;99.90
9151;DHT22;4610;50.006;7.490;2023-04-03T01:05:02;3.60;99.90
9151;DHT22;4610;50.006;7.490;2023-04-03T01:07:30;3.50;99.90
9151;DHT22;4610;50.006;7.490;2023-04-03T01:10:01;3.50;99.90
9151;DHT22;4610;50.006;7.490;2023-04-03T01:12:30;3.40;99.90
9151;DHT22;4610;50.006;7.490;2023-04-03T01:15:00;3.50;99.90
9151;DHT22;4610;50.006;7.490;2023-04-03T01:17:31;3.60;99.90
9151;DHT22;4610;50.006;7.490;2023-04-03T01:23:06;3.60;99.90
9151;DHT22;4610;50.006;7.490;2023-04-03T01:25:42;3.50;99.90
9151;DHT22;4610;50.006;7.490;2023-04-03T01:28:12;3.40;99.90
9151;DHT22;4610;50.006;7.490;2023-04-03T01:30:45;3.30;99.90
9151;DHT22;4610;50.006;7.490;2023-04-03T01:33:15;3.40;99.90
9151;DHT22;4610;50.006;7.490;2023-04-03T01:35:42;3.40;99.90
9151;DHT22;4610;50.006;7.490;2023-04-03T01:38:09;3.30;99.90
9151;DHT22;4610;50.006;7.490;2023-04-03T01:40:37;3.30;99.90
9151;DHT22;4610;50.006;7.490;2023-04-03T01:43:03;3.20;99.90
9151;DHT22;4610;50.006;7.490;2023-04-03T01:45:30;3.10;99.90
9151;DHT22;4610;50.006;7.490;2023-04-03T01:47:57;3.00;99.90
9151;DHT22;4610;50.006;7.490;2023-04-03T01:50:25;3.00;99.90
9151;DHT22;4610;50.006;7.490;2023-04-03T01:52:52;2.90;99.90
9151;DHT22;4610;50.006;7.490;2023-04-03T01:55:18;2.90;99.90
9151;DHT22;4610;50.006;7.490;2023-04-03T01:57:45;3.00;99.90
9151;DHT22;4610;50.006;7.490;2023-04-03T02:00:13;3.10;99.90
9151;DHT22;4610;50.006;7.490;2023-04-03T02:02:40;3.10;99.90
9151;DHT22;4610;50.006;7.490;2023-04-03T02:05:07;3.20;99.90
9151;DHT22;4610;50.006;7.490;2023-04-03T02:07:36;3.20;99.90
9151;DHT22;4610;50.006;7.490;2023-04-03T02:10:03;3.10;99.90
9151;DHT22;4610;50.006;7.490;2023-04-03T02:12:29;3.10;99.90
9151;DHT22;4610;50.006;7.490;2023-04-03T02:14:56;3.20;99.90
9151;DHT22;4610;50.006;7.490;2023-04-03T02:17:23;3.20;99.90
9151;DHT22;4610;50.006;7.490;2023-04-03T02:19:50;3.30;99.90
9151;DHT22;4610;50.006;7.490;2023-04-03T02:22:16;3.20;99.90
9151;DHT22;4610;50.006;7.490;2023-04-03T02:24:45;3.20;99.90
9151;DHT22;4610;50.006;7.490;2023-04-03T02:27:11;3.20;99.90
9151;DHT22;4610;50.006;7.490;2023-04-03T02:29:38;3.20;99.90
9151;DHT22;4610;50.006;7.490;2023-04-03T02:32:05;3.10;99.90
9151;DHT22;4610;50.006;7.490;2023-04-03T02:34:32;3.10;99.90
9151;DHT22;4610;50.006;7.490;2023-04-03T02:36:58;3.10;99.90
9151;DHT22;4610;50.006;7.490;2023-04-03T02:39:25;3.20;99.90
9151;DHT22;4610;50.006;7.490;2023-04-03T02:41:54;3.20;99.90
9151;DHT22;4610;50.006;7.490;2023-04-03T02:44:20;3.30;99.90
9151;DHT22;4610;50.006;7.490;2023-04-03T02:46:49;3.20;99.90
9151;DHT22;4610;50.006;7.490;2023-04-03T02:49:15;3.10;99.90
9151;DHT22;4610;50.006;7.490;2023-04-03T02:51:42;3.10;99.90
9151;DHT22;4610;50.006;7.490;2023-04-03T02:54:09;3.10;99.90
9151;DHT22;4610;50.006;7.490;2023-04-03T02:56:35;3.10;99.90
9151;DHT22;4610;50.006;7.490;2023-04-03T02:59:04;3.10;99.90
9151;DHT22;4610;50.006;7.490;2023-04-03T03:01:31;3.20;99.90
9151;DHT22;4610;50.006;7.490;2023-04-03T03:03:58;3.20;99.90
9151;DHT22;4610;50.006;7.490;2023-04-03T03:06:25;3.30;99.90
9151;DHT22;4610;50.006;7.490;2023-04-03T03:08:52;3.20;99.90
9151;DHT22;4610;50.006;7.490;2023-04-03T03:11:19;3.20;99.90
9151;DHT22;4610;50.006;7.490;2023-04-03T03:13:46;3.10;99.90
9151;DHT22;4610;50.006;7.490;2023-04-03T03:16:14;3.20;99.90
9151;DHT22;4610;50.006;7.490;2023-04-03T03:18:41;3.20;99.90
9151;DHT22;4610;50.006;7.490;2023-04-03T03:21:09;3.20;99.90
9151;DHT22;4610;50.006;7.490;2023-04-03T03:23:36;3.20;99.90
9151;DHT22;4610;50.006;7.490;2023-04-03T03:26:05;3.20;99.90
9151;DHT22;4610;50.006;7.490;2023-04-03T03:28:33;3.20;99.90
9151;DHT22;4610;50.006;7.490;2023-04-03T03:31:00;3.20;99.90
9151;DHT22;4610;50.006;7.490;2023-04-03T03:33:28;3.10;99.90
9151;DHT22;4610;50.006;7.490;2023-04-03T03:35:56;3.20;99.90
9151;DHT22;4610;50.006;7.490;2023-04-03T03:38:23;3.20;99.90
9151;DHT22;4610;50.006;7.490;2023-04-03T03:40:50;3.20;99.90
9151;DHT22;4610;50.006;7.490;2023-04-03T03:43:17;3.30;99.90
9151;DHT22;4610;50.006;7.490;2023-04-03T03:45:49;3.30;99.90
9151;DHT22;4610;50.006;7.490;2023-04-03T03:48:16;3.20;99.90
9151;DHT22;4610;50.006;7.490;2023-04-03T03:50:44;3.10;99.90
9151;DHT22;4610;50.006;7.490;2023-04-03T03:53:11;3.10;99.90
9151;DHT22;4610;50.006;7.490;2023-04-03T03:55:38;3.00;99.90
9151;DHT22;4610;50.006;7.490;2023-04-03T03:58:04;3.00;99.90
9151;DHT22;4610;50.006;7.490;2023-04-03T04:00:31;3.10;99.90
9151;DHT22;4610;50.006;7.490;2023-04-03T04:02:58;3.10;99.90
9151;DHT22;4610;50.006;7.490;2023-04-03T04:05:26;3.10;99.90
9151;DHT22;4610;50.006;7.490;2023-04-03T04:07:54;3.10;99.90
9151;DHT22;4610;50.006;7.490;2023-04-03T04:10:21;3.00;99.90
9151;DHT22;4610;50.006;7.490;2023-04-03T04:12:47;2.90;99.90
9151;DHT22;4610;50.006;7.490;2023-04-03T04:15:16;2.80;99.90
9151;DHT22;4610;50.006;7.490;2023-04-03T04:17:43;2.90;99.90
9151;DHT22;4610;50.006;7.490;2023-04-03T04:20:11;2.80;99.90
9151;DHT22;4610;50.006;7.490;2023-04-03T04:22:37;2.80;99.90
9151;DHT22;4610;50.006;7.490;2023-04-03T04:25:06;2.80;99.90
9151;DHT22;4610;50.006;7.490;2023-04-03T04:27:33;2.80;99.90
9151;DHT22;4610;50.006;7.490;2023-04-03T04:30:00;2.80;99.90
9151;DHT22;4610;50.006;7.490;2023-04-03T04:32:28;2.70;99.90
9151;DHT22;4610;50.006;7.490;2023-04-03T04:34:55;2.60;99.90
9151;DHT22;4610;50.006;7.490;2023-04-03T04:37:21;2.50;99.90
9151;DHT22;4610;50.006;7.490;2023-04-03T04:39:48;2.60;99.90
9151;DHT22;4610;50.006;7.490;2023-04-03T04:42:16;2.70;99.90
9151;DHT22;4610;50.006;7.490;2023-04-03T04:44:43;2.70;99.90
9151;DHT22;4610;50.006;7.490;2023-04-03T04:47:10;2.80;99.90
9151;DHT22;4610;50.006;7.490;2023-04-03T04:49:37;2.70;99.90
9151;DHT22;4610;50.006;7.490;2023-04-03T04:52:04;2.70;99.90
9151;DHT22;4610;50.006;7.490;2023-04-03T04:54:32;2.50;99.90
9151;DHT22;4610;50.006;7.490;2023-04-03T04:56:58;2.50;99.90
9151;DHT22;4610;50.006;7.490;2023-04-03T04:59:26;2.50;99.90
9151;DHT22;4610;50.006;7.490;2023-04-03T05:01:53;2.50;99.90
9151;DHT22;4610;50.006;7.490;2023-04-03T05:04:20;2.60;99.90
9151;DHT22;4610;50.006;7.490;2023-04-03T05:06:47;2.60;99.90
9151;DHT22;4610;50.006;7.490;2023-04-03T05:09:14;2.60;99.90
9151;DHT22;4610;50.006;7.490;2023-04-03T05:11:40;2.50;99.90
9151;DHT22;4610;50.006;7.490;2023-04-03T05:14:08;2.30;99.90
9151;DHT22;4610;50.006;7.490;2023-04-03T05:16:36;2.30;99.90
9151;DHT22;4610;50.006;7.490;2023-04-03T05:19:03;2.20;99.90
9151;DHT22;4610;50.006;7.490;2023-04-03T05:21:30;2.30;99.90
9151;DHT22;4610;50.006;7.490;2023-04-03T05:23:58;2.30;99.90
9151;DHT22;4610;50.006;7.490;2023-04-03T05:26:28;2.40;99.90
9151;DHT22;4610;50.006;7.490;2023-04-03T05:28:54;2.50;99.90
9151;DHT22;4610;50.006;7.490;2023-04-03T05:31:21;2.50;99.90
9151;DHT22;4610;50.006;7.490;2023-04-03T05:33:49;2.50;99.90
9151;DHT22;4610;50.006;7.490;2023-04-03T05:36:16;2.50;99.90
9151;DHT22;4610;50.006;7.490;2023-04-03T05:38:43;2.60;99.90
9151;DHT22;4610;50.006;7.490;2023-04-03T05:41:09;2.90;99.90
9151;DHT22;4610;50.006;7.490;2023-04-03T05:43:36;3.10;99.90
9151;DHT22;4610;50.006;7.490;2023-04-03T05:46:07;3.20;99.90
9151;DHT22;4610;50.006;7.490;2023-04-03T05:48:35;3.20;99.90
9151;DHT22;4610;50.006;7.490;2023-04-03T05:51:04;3.20;99.90
9151;DHT22;4610;50.006;7.490;2023-04-03T05:53:33;3.10;99.90
9151;DHT22;4610;50.006;7.490;2023-04-03T05:56:01;3.00;99.90
9151;DHT22;4610;50.006;7.490;2023-04-03T05:58:28;3.60;99.90
9151;DHT22;4610;50.006;7.490;2023-04-03T06:00:55;4.50;99.90
9151;DHT22;4610;50.006;7.490;2023-04-03T06:03:22;5.50;99.90
9151;DHT22;4610;50.006;7.490;2023-04-03T06:05:49;5.90;99.90
9151;DHT22;4610;50.006;7.490;2023-04-03T06:08:17;6.10;99.90
9151;DHT22;4610;50.006;7.490;2023-04-03T06:10:44;5.70;99.90
9151;DHT22;4610;50.006;7.490;2023-04-03T06:13:11;5.30;99.90
9151;DHT22;4610;50.006;7.490;2023-04-03T06:15:38;5.00;99.90
9151;DHT22;4610;50.006;7.490;2023-04-03T06:18:05;5.60;99.90
9151;DHT22;4610;50.006;7.490;2023-04-03T06:20:32;6.20;99.90
9151;DHT22;4610;50.006;7.490;2023-04-03T06:22:58;6.40;99.90
9151;DHT22;4610;50.006;7.490;2023-04-03T06:25:26;7.10;99.90
9151;DHT22;4610;50.006;7.490;2023-04-03T06:27:54;8.50;99.90
9151;DHT22;4610;50.006;7.490;2023-04-03T06:30:21;9.90;99.90
9151;DHT22;4610;50.006;7.490;2023-04-03T06:32:48;10.50;99.90
9151;DHT22;4610;50.006;7.490;2023-04-03T06:35:15;11.40;99.90
9151;DHT22;4610;50.006;7.490;2023-04-03T06:37:42;11.90;99.90
9151;DHT22;4610;50.006;7.490;2023-04-03T06:40:16;12.50;99.80
9151;DHT22;4610;50.006;7.490;2023-04-03T06:42:46;12.70;99.20
9151;DHT22;4610;50.006;7.490;2023-04-03T06:45:13;12.60;98.60
9151;DHT22;4610;50.006;7.490;2023-04-03T06:47:40;12.50;98.30
9151;DHT22;4610;50.006;7.490;2023-04-03T06:50:09;12.60;98.30
9151;DHT22;4610;50.006;7.490;2023-04-03T06:52:36;12.90;98.00
9151;DHT22;4610;50.006;7.490;2023-04-03T06:55:05;13.10;97.40
9151;DHT22;4610;50.006;7.490;2023-04-03T06:57:32;13.10;96.50
9151;DHT22;4610;50.006;7.490;2023-04-03T07:00:01;12.70;96.50
9151;DHT22;4610;50.006;7.490;2023-04-03T07:02:28;12.50;95.70
9151;DHT22;4610;50.006;7.490;2023-04-03T07:04:55;12.70;96.50
9151;DHT22;4610;50.006;7.490;2023-04-03T07:07:22;13.40;99.90
9151;DHT22;4610;50.006;7.490;2023-04-03T07:09:48;13.40;97.00
9151;DHT22;4610;50.006;7.490;2023-04-03T07:12:15;13.70;96.00
9151;DHT22;4610;50.006;7.490;2023-04-03T07:14:42;13.40;94.80
9151;DHT22;4610;50.006;7.490;2023-04-03T07:17:10;13.40;95.00
9151;DHT22;4610;50.006;7.490;2023-04-03T07:19:37;13.30;95.00
9151;DHT22;4610;50.006;7.490;2023-04-03T07:22:04;13.40;95.30
9151;DHT22;4610;50.006;7.490;2023-04-03T07:24:30;13.80;94.20
9151;DHT22;4610;50.006;7.490;2023-04-03T07:26:57;13.30;94.40
9151;DHT22;4610;50.006;7.490;2023-04-03T07:29:24;13.30;94.50
9151;DHT22;4610;50.006;7.490;2023-04-03T07:31:50;13.80;94.70
9151;DHT22;4610;50.006;7.490;2023-04-03T07:34:19;13.90;94.30
9151;DHT22;4610;50.006;7.490;2023-04-03T07:36:46;14.10;93.20
9151;DHT22;4610;50.006;7.490;2023-04-03T07:39:12;14.50;93.30
9151;DHT22;4610;50.006;7.490;2023-04-03T07:41:39;14.80;93.70
9151;DHT22;4610;50.006;7.490;2023-04-03T07:44:06;15.30;92.00
9151;DHT22;4610;50.006;7.490;2023-04-03T07:46:35;15.40;91.70
9151;DHT22;4610;50.006;7.490;2023-04-03T07:49:02;15.60;91.50
9151;DHT22;4610;50.006;7.490;2023-04-03T07:51:30;15.30;91.00
9151;DHT22;4610;50.006;7.490;2023-04-03T07:53:56;15.10;91.20
9151;DHT22;4610;50.006;7.490;2023-04-03T07:56:24;14.80;91.20
9151;DHT22;4610;50.006;7.490;2023-04-03T07:58:51;14.90;91.00
9151;DHT22;4610;50.006;7.490;2023-04-03T08:01:19;14.90;90.80
9151;DHT22;4610;50.006;7.490;2023-04-03T08:03:46;14.20;90.30
9151;DHT22;4610;50.006;7.490;2023-04-03T08:06:13;13.80;91.40
9151;DHT22;4610;50.006;7.490;2023-04-03T08:08:42;13.80;91.50
9151;DHT22;4610;50.006;7.490;2023-04-03T08:11:10;13.60;92.50
9151;DHT22;4610;50.006;7.490;2023-04-03T08:13:37;14.40;92.00
9151;DHT22;4610;50.006;7.490;2023-04-03T08:16:11;14.60;90.50
9151;DHT22;4610;50.006;7.490;2023-04-03T08:18:39;14.90;90.50
9151;DHT22;4610;50.006;7.490;2023-04-03T08:21:06;15.20;90.60
9151;DHT22;4610;50.006;7.490;2023-04-03T08:23:33;15.50;90.30
9151;DHT22;4610;50.006;7.490;2023-04-03T08:26:07;15.00;90.60
9151;DHT22;4610;50.006;7.490;2023-04-03T08:28:34;15.20;90.70
9151;DHT22;4610;50.006;7.490;2023-04-03T08:31:03;15.30;89.30
9151;DHT22;4610;50.006;7.490;2023-04-03T08:33:31;15.10;89.30
9151;DHT22;4610;50.006;7.490;2023-04-03T08:35:59;14.80;90.10
9151;DHT22;4610;50.006;7.490;2023-04-03T08:38:26;13.80;90.30
9151;DHT22;4610;50.006;7.490;2023-04-03T08:41:01;12.50;91.60
9151;DHT22;4610;50.006;7.490;2023-04-03T08:43:35;12.00;92.70
9151;DHT22;4610;50.006;7.490;2023-04-03T08:46:05;12.10;93.20
9151;DHT22;4610;50.006;7.490;2023-04-03T08:48:36;12.80;99.00
9151;DHT22;4610;50.006;7.490;2023-04-03T08:51:08;11.90;96.70
9151;DHT22;4610;50.006;7.490;2023-04-03T08:53:43;11.90;97.00
9151;DHT22;4610;50.006;7.490;2023-04-03T08:56:12;12.50;95.60
9151;DHT22;4610;50.006;7.490;2023-04-03T08:58:48;12.20;95.00
9151;DHT22;4610;50.006;7.490;2023-04-03T09:01:19;11.60;96.20
9151;DHT22;4610;50.006;7.490;2023-04-03T09:03:46;11.80;95.60
9151;DHT22;4610;50.006;7.490;2023-04-03T09:06:15;11.70;95.80
9151;DHT22;4610;50.006;7.490;2023-04-03T09:08:49;12.30;96.30
9151;DHT22;4610;50.006;7.490;2023-04-03T09:11:22;11.60;95.70
9151;DHT22;4610;50.006;7.490;2023-04-03T09:13:54;11.30;96.00
9151;DHT22;4610;50.006;7.490;2023-04-03T09:16:35;11.00;95.50
9151;DHT22;4610;50.006;7.490;2023-04-03T09:19:10;10.90;95.60
9151;DHT22;4610;50.006;7.490;2023-04-03T09:21:40;11.40;95.90
9151;DHT22;4610;50.006;7.490;2023-04-03T09:24:10;11.80;95.80
9151;DHT22;4610;50.006;7.490;2023-04-03T09:26:42;11.60;95.80
9151;DHT22;4610;50.006;7.490;2023-04-03T09:29:15;12.00;95.70
9151;DHT22;4610;50.006;7.490;2023-04-03T09:31:44;12.20;95.10
9151;DHT22;4610;50.006;7.490;2023-04-03T09:34:17;13.00;95.30
9151;DHT22;4610;50.006;7.490;2023-04-03T09:36:48;13.10;94.30
9151;DHT22;4610;50.006;7.490;2023-04-03T09:39:18;12.50;94.10
9151;DHT22;4610;50.006;7.490;2023-04-03T09:41:56;11.80;93.60
9151;DHT22;4610;50.006;7.490;2023-04-03T09:44:26;12.00;94.50
9151;DHT22;4610;50.006;7.490;2023-04-03T09:46:53;12.10;94.00
9151;DHT22;4610;50.006;7.490;2023-04-03T09:49:20;11.60;94.10
9151;DHT22;4610;50.006;7.490;2023-04-03T09:51:47;12.00;94.40
9151;DHT22;4610;50.006;7.490;2023-04-03T09:54:41;12.20;94.70
9151;DHT22;4610;50.006;7.490;2023-04-03T09:57:10;12.90;93.40
9151;DHT22;4610;50.006;7.490;2023-04-03T09:59:46;13.00;92.20
9151;DHT22;4610;50.006;7.490;2023-04-03T10:02:38;13.60;97.60
9151;DHT22;4610;50.006;7.490;2023-04-03T10:05:31;12.70;93.50
9151;DHT22;4610;50.006;7.490;2023-04-03T10:08:19;12.50;94.40
9151;DHT22;4610;50.006;7.490;2023-04-03T10:11:06;12.80;93.80
9151;DHT22;4610;50.006;7.490;2023-04-03T10:13:35;12.50;93.50
9151;DHT22;4610;50.006;7.490;2023-04-03T10:16:07;11.40;93.40
9151;DHT22;4610;50.006;7.490;2023-04-03T10:18:40;11.20;93.60
9151;DHT22;4610;50.006;7.490;2023-04-03T10:21:13;11.50;92.10
9151;DHT22;4610;50.006;7.490;2023-04-03T10:23:45;11.70;91.90
9151;DHT22;4610;50.006;7.490;2023-04-03T10:26:17;11.90;92.60
9151;DHT22;4610;50.006;7.490;2023-04-03T10:28:53;11.30;90.60
9151;DHT22;4610;50.006;7.490;2023-04-03T10:31:28;11.30;91.10
9151;DHT22;4610;50.006;7.490;2023-04-03T10:34:03;11.50;91.30
9151;DHT22;4610;50.006;7.490;2023-04-03T10:36:36;11.80;92.40
9151;DHT22;4610;50.006;7.490;2023-04-03T10:39:14;11.90;93.20
9151;DHT22;4610;50.006;7.490;2023-04-03T10:41:54;11.80;92.60
9151;DHT22;4610;50.006;7.490;2023-04-03T10:44:31;11.70;91.80
9151;DHT22;4610;50.006;7.490;2023-04-03T10:47:07;11.80;93.80
9151;DHT22;4610;50.006;7.490;2023-04-03T10:49:48;11.60;91.90
9151;DHT22;4610;50.006;7.490;2023-04-03T10:52:21;11.30;91.60
9151;DHT22;4610;50.006;7.490;2023-04-03T10:54:56;11.00;91.50
9151;DHT22;4610;50.006;7.490;2023-04-03T10:57:25;11.00;91.40
9151;DHT22;4610;50.006;7.490;2023-04-03T10:59:57;11.00;91.60
9151;DHT22;4610;50.006;7.490;2023-04-03T11:02:28;11.00;91.70
9151;DHT22;4610;50.006;7.490;2023-04-03T11:05:00;10.80;93.10
9151;DHT22;4610;50.006;7.490;2023-04-03T11:07:32;10.10;92.10
9151;DHT22;4610;50.006;7.490;2023-04-03T11:10:03;10.00;92.30
9151;DHT22;4610;50.006;7.490;2023-04-03T11:12:36;9.50;93.80
9151;DHT22;4610;50.006;7.490;2023-04-03T11:15:11;9.60;94.40
9151;DHT22;4610;50.006;7.490;2023-04-03T11:17:45;9.60;94.50
9151;DHT22;4610;50.006;7.490;2023-04-03T11:20:17;9.40;95.30
9151;DHT22;4610;50.006;7.490;2023-04-03T11:22:48;9.30;95.60
9151;DHT22;4610;50.006;7.490;2023-04-03T11:25:19;9.60;95.40
9151;DHT22;4610;50.006;7.490;2023-04-03T11:27:51;9.70;94.50
9151;DHT22;4610;50.006;7.490;2023-04-03T11:30:22;9.70;94.40
9151;DHT22;4610;50.006;7.490;2023-04-03T11:33:10;9.70;95.10
9151;DHT22;4610;50.006;7.490;2023-04-03T11:35:43;9.40;94.60
9151;DHT22;4610;50.006;7.490;2023-04-03T11:38:17;9.30;94.70
9151;DHT22;4610;50.006;7.490;2023-04-03T11:40:45;9.30;94.60
9151;DHT22;4610;50.006;7.490;2023-04-03T11:43:22;9.30;94.00
9151;DHT22;4610;50.006;7.490;2023-04-03T11:45:53;9.40;94.80
9151;DHT22;4610;50.006;7.490;2023-04-03T11:48:46;9.40;94.40
9151;DHT22;4610;50.006;7.490;2023-04-03T11:51:41;9.00;93.40
9151;DHT22;4610;50.006;7.490;2023-04-03T11:57:44;9.10;94.10
9151;DHT22;4610;50.006;7.490;2023-04-03T12:00:46;9.00;94.00
9151;DHT22;4610;50.006;7.490;2023-04-03T12:06:50;8.60;94.70
9151;DHT22;4610;50.006;7.490;2023-04-03T12:09:29;8.90;96.40
9151;DHT22;4610;50.006;7.490;2023-04-03T12:12:00;9.10;94.80
9151;DHT22;4610;50.006;7.490;2023-04-03T12:14:28;8.90;94.00
9151;DHT22;4610;50.006;7.490;2023-04-03T12:16:57;8.70;95.10
9151;DHT22;4610;50.006;7.490;2023-04-03T12:19:31;9.00;94.80
9151;DHT22;4610;50.006;7.490;2023-04-03T12:22:09;9.50;99.40
9151;DHT22;4610;50.006;7.490;2023-04-03T12:24:37;9.20;96.90
9151;DHT22;4610;50.006;7.490;2023-04-03T12:27:17;9.10;97.20
9151;DHT22;4610;50.006;7.490;2023-04-03T12:29:51;9.00;96.00
9151;DHT22;4610;50.006;7.490;2023-04-03T12:32:29;8.70;96.30
9151;DHT22;4610;50.006;7.490;2023-04-03T12:35:11;8.40;97.40
9151;DHT22;4610;50.006;7.490;2023-04-03T12:37:57;8.90;98.50
9151;DHT22;4610;50.006;7.490;2023-04-03T12:40:31;8.90;97.90
9151;DHT22;4610;50.006;7.490;2023-04-03T12:43:17;8.80;97.30
9151;DHT22;4610;50.006;7.490;2023-04-03T12:45:50;8.70;96.30
9151;DHT22;4610;50.006;7.490;2023-04-03T12:48:24;8.50;96.40
9151;DHT22;4610;50.006;7.490;2023-04-03T12:50:52;8.50;96.40
9151;DHT22;4610;50.006;7.490;2023-04-03T12:53:22;8.50;96.30
9151;DHT22;4610;50.006;7.490;2023-04-03T12:55:54;8.30;95.60
9151;DHT22;4610;50.006;7.490;2023-04-03T12:58:22;8.30;96.20
9151;DHT22;4610;50.006;7.490;2023-04-03T13:01:00;8.40;95.60
9151;DHT22;4610;50.006;7.490;2023-04-03T13:03:27;9.30;99.90
9151;DHT22;4610;50.006;7.490;2023-04-03T13:05:57;9.40;98.20
9151;DHT22;4610;50.006;7.490;2023-04-03T13:08:26;8.90;97.10
9151;DHT22;4610;50.006;7.490;2023-04-03T13:10:57;8.70;97.80
9151;DHT22;4610;50.006;7.490;2023-04-03T13:13:25;8.50;97.60
9151;DHT22;4610;50.006;7.490;2023-04-03T13:15:54;8.50;97.90
9151;DHT22;4610;50.006;7.490;2023-04-03T13:18:26;8.70;97.90
9151;DHT22;4610;50.006;7.490;2023-04-03T13:20:57;8.70;98.80
9151;DHT22;4610;50.006;7.490;2023-04-03T13:23:27;8.40;96.90
9151;DHT22;4610;50.006;7.490;2023-04-03T13:25:55;8.30;96.90
9151;DHT22;4610;50.006;7.490;2023-04-03T13:28:26;8.30;96.40
9151;DHT22;4610;50.006;7.490;2023-04-03T13:30:56;8.50;97.00
9151;DHT22;4610;50.006;7.490;2023-04-03T13:33:26;8.50;96.40
9151;DHT22;4610;50.006;7.490;2023-04-03T13:35:56;8.10;95.60
9151;DHT22;4610;50.006;7.490;2023-04-03T13:38:25;7.90;95.90
9151;DHT22;4610;50.006;7.490;2023-04-03T13:40:55;8.10;98.50
9151;DHT22;4610;50.006;7.490;2023-04-03T13:43:25;8.40;96.50
9151;DHT22;4610;50.006;7.490;2023-04-03T13:46:03;8.50;95.10
9151;DHT22;4610;50.006;7.490;2023-04-03T13:48:36;8.30;95.50
9151;DHT22;4610;50.006;7.490;2023-04-03T13:51:05;8.30;95.60
9151;DHT22;4610;50.006;7.490;2023-04-03T13:53:40;8.20;95.20
9151;DHT22;4610;50.006;7.490;2023-04-03T13:56:18;8.10;95.00
9151;DHT22;4610;50.006;7.490;2023-04-03T13:58:58;7.90;95.10
9151;DHT22;4610;50.006;7.490;2023-04-03T14:01:32;8.10;95.60
9151;DHT22;4610;50.006;7.490;2023-04-03T14:04:09;8.30;95.90
9151;DHT22;4610;50.006;7.490;2023-04-03T14:06:36;8.70;98.50
9151;DHT22;4610;50.006;7.490;2023-04-03T14:09:03;8.80;97.30
9151;DHT22;4610;50.006;7.490;2023-04-03T14:11:31;8.50;96.00
9151;DHT22;4610;50.006;7.490;2023-04-03T14:14:01;8.30;95.80
9151;DHT22;4610;50.006;7.490;2023-04-03T14:16:32;8.20;96.50
9151;DHT22;4610;50.006;7.490;2023-04-03T14:18:59;8.20;96.10
9151;DHT22;4610;50.006;7.490;2023-04-03T14:21:26;8.30;95.80
9151;DHT22;4610;50.006;7.490;2023-04-03T14:23:53;8.30;95.90
9151;DHT22;4610;50.006;7.490;2023-04-03T14:26:22;8.20;95.10
9151;DHT22;4610;50.006;7.490;2023-04-03T14:28:54;8.20;95.50
9151;DHT22;4610;50.006;7.490;2023-04-03T14:31:22;8.20;94.60
9151;DHT22;4610;50.006;7.490;2023-04-03T14:33:49;8.20;95.10
9151;DHT22;4610;50.006;7.490;2023-04-03T14:36:19;8.00;94.50
9151;DHT22;4610;50.006;7.490;2023-04-03T14:38:48;7.90;94.70
9151;DHT22;4610;50.006;7.490;2023-04-03T14:41:17;7.80;94.30
9151;DHT22;4610;50.006;7.490;2023-04-03T14:43:45;7.70;94.70
9151;DHT22;4610;50.006;7.490;2023-04-03T14:46:17;7.70;94.70
9151;DHT22;4610;50.006;7.490;2023-04-03T14:48:44;7.60;94.00
9151;DHT22;4610;50.006;7.490;2023-04-03T14:51:12;7.70;95.40
9151;DHT22;4610;50.006;7.490;2023-04-03T14:53:40;7.60;93.50
9151;DHT22;4610;50.006;7.490;2023-04-03T14:56:12;7.40;95.30
9151;DHT22;4610;50.006;7.490;2023-04-03T14:58:39;7.40;93.60
9151;DHT22;4610;50.006;7.490;2023-04-03T15:01:06;7.40;93.00
9151;DHT22;4610;50.006;7.490;2023-04-03T15:03:34;7.40;93.50
9151;DHT22;4610;50.006;7.490;2023-04-03T15:06:01;7.50;93.90
9151;DHT22;4610;50.006;7.490;2023-04-03T15:08:28;7.40;92.70
9151;DHT22;4610;50.006;7.490;2023-04-03T15:10:56;7.30;93.50
9151;DHT22;4610;50.006;7.490;2023-04-03T15:13:24;7.10;93.70
9151;DHT22;4610;50.006;7.490;2023-04-03T15:15:51;7.20;92.70
9151;DHT22;4610;50.006;7.490;2023-04-03T15:18:20;7.30;94.00
9151;DHT22;4610;50.006;7.490;2023-04-03T15:20:49;7.20;92.60
9151;DHT22;4610;50.006;7.490;2023-04-03T15:23:17;7.20;93.00
9151;DHT22;4610;50.006;7.490;2023-04-03T15:25:45;7.10;93.00
9151;DHT22;4610;50.006;7.490;2023-04-03T15:28:18;7.00;92.80
9151;DHT22;4610;50.006;7.490;2023-04-03T15:30:45;7.10;92.30
9151;DHT22;4610;50.006;7.490;2023-04-03T15:33:12;7.10;92.00
9151;DHT22;4610;50.006;7.490;2023-04-03T15:35:39;7.10;92.80
9151;DHT22;4610;50.006;7.490;2023-04-03T15:38:07;7.10;92.40
9151;DHT22;4610;50.006;7.490;2023-04-03T15:40:34;7.00;91.70
9151;DHT22;4610;50.006;7.490;2023-04-03T15:43:01;7.00;92.90
9151;DHT22;4610;50.006;7.490;2023-04-03T15:45:29;7.00;92.20
9151;DHT22;4610;50.006;7.490;2023-04-03T15:47:57;6.90;91.90
9151;DHT22;4610;50.006;7.490;2023-04-03T15:50:24;7.00;92.90
9151;DHT22;4610;50.006;7.490;2023-04-03T15:52:51;6.90;92.10
9151;DHT22;4610;50.006;7.490;2023-04-03T15:55:21;6.90;92.30
9151;DHT22;4610;50.006;7.490;2023-04-03T15:57:48;6.90;92.80
9151;DHT22;4610;50.006;7.490;2023-04-03T16:00:15;7.70;99.90
9151;DHT22;4610;50.006;7.490;2023-04-03T16:02:43;7.60;95.30
9151;DHT22;4610;50.006;7.490;2023-04-03T16:05:10;7.30;94.80
9151;DHT22;4610;50.006;7.490;2023-04-03T16:07:38;7.20;93.90
9151;DHT22;4610;50.006;7.490;2023-04-03T16:10:06;7.10;93.90
9151;DHT22;4610;50.006;7.490;2023-04-03T16:12:35;7.00;94.40
9151;DHT22;4610;50.006;7.490;2023-04-03T16:15:02;6.90;94.00
9151;DHT22;4610;50.006;7.490;2023-04-03T16:17:28;6.80;94.00
9151;DHT22;4610;50.006;7.490;2023-04-03T16:19:56;6.70;94.60
9151;DHT22;4610;50.006;7.490;2023-04-03T16:22:24;6.60;94.50
9151;DHT22;4610;50.006;7.490;2023-04-03T16:24:51;6.70;94.60
9151;DHT22;4610;50.006;7.490;2023-04-03T16:27:18;6.60;94.40
9151;DHT22;4610;50.006;7.490;2023-04-03T16:29:46;6.60;95.10
9151;DHT22;4610;50.006;7.490;2023-04-03T16:32:13;6.60;94.30
9151;DHT22;4610;50.006;7.490;2023-04-03T16:34:40;6.70;95.20
9151;DHT22;4610;50.006;7.490;2023-04-03T16:37:07;6.70;95.10
9151;DHT22;4610;50.006;7.490;2023-04-03T16:39:34;6.50;96.00